sensor_id;sensor_type;location;lat;lon;timestamp;pressure;altitude;pressure_sealevel;temperature;humidity
11347;BME280;5728;42.722;23.258;2023-04-15T00:01:05;94012.41;;;8.69;75.70
11347;BME280;5728;42.722;23.258;2023-04-15T00:03:32;94014.13;;;8.70;76.97
11347;BME280;5728;42.722;23.258;2023-04-15T00:05:59;94007.22;;;9.09;74.92
11347;BME280;5728;42.722;23.258;2023-04-15T00:08:28;94007.97;;;9.14;74.00
11347;BME280;5728;42.722;23.258;2023-04-15T00:10:55;94010.72;;;9.08;75.26
11347;BME280;5728;42.722;23.258;2023-04-15T00:13:23;94005.53;;;9.08;73.87
11347;BME280;5728;42.722;23.258;2023-04-15T00:15:50;93997.84;;;9.05;74.90
11347;BME280;5728;42.722;23.258;2023-04-15T00:18:17;94010.56;;;9.14;75.78
11347;BME280;5728;42.722;23.258;2023-04-15T00:20:43;94000.22;;;9.14;75.46
11347;BME280;5728;42.722;23.258;2023-04-15T00:23:10;94000.72;;;8.93;74.55
11347;BME280;5728;42.722;23.258;2023-04-15T00:25:38;94006.84;;;8.87;76.95
11347;BME280;5728;42.722;23.258;2023-04-15T00:28:06;94011.78;;;8.57;77.54
11347;BME280;5728;42.722;23.258;2023-04-15T00:30:32;94009.59;;;8.80;78.98
11347;BME280;5728;42.722;23.258;2023-04-15T00:32:59;94015.28;;;8.56;79.99
11347;BME280;5728;42.722;23.258;2023-04-15T00:35:28;94014.63;;;8.45;80.50
11347;BME280;5728;42.722;23.258;2023-04-15T00:37:56;94018.53;;;8.64;81.60
11347;BME280;5728;42.722;23.258;2023-04-15T00:40:24;94022.13;;;8.57;81.29
11347;BME280;5728;42.722;23.258;2023-04-15T00:42:53;94017.25;;;8.42;81.51
11347;BME280;5728;42.722;23.258;2023-04-15T00:45:20;94009.81;;;8.71;81.80
11347;BME280;5728;42.722;23.258;2023-04-15T00:47:47;94006.22;;;8.33;81.44
11347;BME280;5728;42.722;23.258;2023-04-15T00:50:14;94002.38;;;8.54;80.40
11347;BME280;5728;42.722;23.258;2023-04-15T00:52:41;94008.91;;;8.72;80.82
11347;BME280;5728;42.722;23.258;2023-04-15T00:55:08;94016.75;;;8.67;79.89
11347;BME280;5728;42.722;23.258;2023-04-15T00:57:36;94023.06;;;8.94;78.75
11347;BME280;5728;42.722;23.258;2023-04-15T01:00:06;94018.47;;;8.67;79.22
11347;BME280;5728;42.722;23.258;2023-04-15T01:02:34;94013.75;;;8.88;79.60
11347;BME280;5728;42.722;23.258;2023-04-15T01:05:01;94004.81;;;9.02;78.82
11347;BME280;5728;42.722;23.258;2023-04-15T01:07:29;94008.56;;;8.87;78.27
11347;BME280;5728;42.722;23.258;2023-04-15T01:09:56;94013.06;;;8.79;79.86
11347;BME280;5728;42.722;23.258;2023-04-15T01:12:25;94020.94;;;8.73;80.11
11347;BME280;5728;42.722;23.258;2023-04-15T01:14:52;94017.88;;;8.56;79.85
11347;BME280;5728;42.722;23.258;2023-04-15T01:17:21;94017.50;;;8.72;80.43
11347;BME280;5728;42.722;23.258;2023-04-15T01:19:49;94019.25;;;8.72;81.35
11347;BME280;5728;42.722;23.258;2023-04-15T01:22:16;94018.63;;;8.61;81.39
11347;BME280;5728;42.722;23.258;2023-04-15T01:24:49;94016.72;;;8.69;81.57
11347;BME280;5728;42.722;23.258;2023-04-15T01:27:20;94019.63;;;8.52;80.65
11347;BME280;5728;42.722;23.258;2023-04-15T01:29:47;94023.47;;;8.76;80.97
11347;BME280;5728;42.722;23.258;2023-04-15T01:32:14;94015.19;;;8.59;82.29
11347;BME280;5728;42.722;23.258;2023-04-15T01:34:41;94029.88;;;8.58;83.01
11347;BME280;5728;42.722;23.258;2023-04-15T01:37:08;94018.44;;;8.70;83.51
11347;BME280;5728;42.722;23.258;2023-04-15T01:39:34;94023.69;;;8.64;83.64
11347;BME280;5728;42.722;23.258;2023-04-15T01:42:01;94019.72;;;8.89;81.93
11347;BME280;5728;42.722;23.258;2023-04-15T01:44:30;94017.22;;;8.45;83.70
11347;BME280;5728;42.722;23.258;2023-04-15T01:46:56;94032.00;;;8.81;82.26
11347;BME280;5728;42.722;23.258;2023-04-15T01:49:23;94021.75;;;8.75;83.14
11347;BME280;5728;42.722;23.258;2023-04-15T01:51:50;94028.75;;;8.70;82.55
11347;BME280;5728;42.722;23.258;2023-04-15T01:54:16;94027.66;;;8.39;83.74
11347;BME280;5728;42.722;23.258;2023-04-15T01:56:43;94018.97;;;8.43;83.95
11347;BME280;5728;42.722;23.258;2023-04-15T01:59:10;94020.56;;;8.50;84.25
11347;BME280;5728;42.722;23.258;2023-04-15T02:01:38;94019.28;;;8.24;84.97
11347;BME280;5728;42.722;23.258;2023-04-15T02:04:05;94025.97;;;8.36;85.11
11347;BME280;5728;42.722;23.258;2023-04-15T02:06:32;94029.47;;;8.33;84.57
11347;BME280;5728;42.722;23.258;2023-04-15T02:08:59;94037.06;;;8.41;85.22
11347;BME280;5728;42.722;23.258;2023-04-15T02:11:25;94039.06;;;8.27;85.51
11347;BME280;5728;42.722;23.258;2023-04-15T02:13:52;94041.09;;;8.10;87.18
11347;BME280;5728;42.722;23.258;2023-04-15T02:16:19;94034.84;;;8.21;87.05
11347;BME280;5728;42.722;23.258;2023-04-15T02:18:47;94030.47;;;8.25;86.26
11347;BME280;5728;42.722;23.258;2023-04-15T02:21:14;94029.53;;;8.30;86.75
11347;BME280;5728;42.722;23.258;2023-04-15T02:23:40;94027.72;;;8.36;85.84
11347;BME280;5728;42.722;23.258;2023-04-15T02:26:08;94030.84;;;8.53;84.66
11347;BME280;5728;42.722;23.258;2023-04-15T02:28:34;94027.53;;;8.45;85.40
11347;BME280;5728;42.722;23.258;2023-04-15T02:31:04;94031.53;;;7.64;87.32
11347;BME280;5728;42.722;23.258;2023-04-15T02:33:31;94028.78;;;7.75;88.82
11347;BME280;5728;42.722;23.258;2023-04-15T02:35:59;94035.25;;;7.45;89.47
11347;BME280;5728;42.722;23.258;2023-04-15T02:38:26;94041.66;;;7.77;88.01
11347;BME280;5728;42.722;23.258;2023-04-15T02:40:52;94040.00;;;7.16;86.96
11347;BME280;5728;42.722;23.258;2023-04-15T02:43:19;94041.34;;;6.82;87.15
11347;BME280;5728;42.722;23.258;2023-04-15T02:45:46;94058.06;;;7.16;86.79
11347;BME280;5728;42.722;23.258;2023-04-15T02:48:13;94042.28;;;7.36;85.65
11347;BME280;5728;42.722;23.258;2023-04-15T02:50:42;94035.44;;;7.33;85.69
11347;BME280;5728;42.722;23.258;2023-04-15T02:53:10;94040.72;;;7.27;85.08
11347;BME280;5728;42.722;23.258;2023-04-15T02:55:38;94039.06;;;7.22;84.43
11347;BME280;5728;42.722;23.258;2023-04-15T02:58:05;94048.31;;;6.72;85.60
11347;BME280;5728;42.722;23.258;2023-04-15T03:00:32;94043.69;;;6.30;87.83
11347;BME280;5728;42.722;23.258;2023-04-15T03:03:01;94044.47;;;6.38;88.23
11347;BME280;5728;42.722;23.258;2023-04-15T03:05:28;94043.50;;;6.45;89.32
11347;BME280;5728;42.722;23.258;2023-04-15T03:07:55;94056.16;;;6.66;88.56
11347;BME280;5728;42.722;23.258;2023-04-15T03:10:23;94058.53;;;6.80;87.46
11347;BME280;5728;42.722;23.258;2023-04-15T03:12:50;94057.78;;;6.73;87.17
11347;BME280;5728;42.722;23.258;2023-04-15T03:15:17;94055.78;;;6.22;88.89
11347;BME280;5728;42.722;23.258;2023-04-15T03:17:43;94055.78;;;6.22;89.33
11347;BME280;5728;42.722;23.258;2023-04-15T03:20:10;94054.22;;;6.09;90.29
11347;BME280;5728;42.722;23.258;2023-04-15T03:22:37;94072.19;;;6.12;90.71
11347;BME280;5728;42.722;23.258;2023-04-15T03:25:04;94056.50;;;6.36;91.35
11347;BME280;5728;42.722;23.258;2023-04-15T03:27:33;94070.00;;;6.56;90.55
11347;BME280;5728;42.722;23.258;2023-04-15T03:30:00;94079.41;;;6.57;89.89
11347;BME280;5728;42.722;23.258;2023-04-15T03:32:26;94080.16;;;6.68;89.66
11347;BME280;5728;42.722;23.258;2023-04-15T03:34:53;94095.69;;;6.61;88.71
11347;BME280;5728;42.722;23.258;2023-04-15T03:37:20;94087.06;;;6.66;88.29
11347;BME280;5728;42.722;23.258;2023-04-15T03:39:46;94093.00;;;6.70;88.12
11347;BME280;5728;42.722;23.258;2023-04-15T03:42:13;94100.72;;;6.70;87.75
11347;BME280;5728;42.722;23.258;2023-04-15T03:44:41;94102.47;;;6.69;87.80
11347;BME280;5728;42.722;23.258;2023-04-15T03:47:08;94113.53;;;6.77;87.17
11347;BME280;5728;42.722;23.258;2023-04-15T03:49:35;94109.28;;;6.73;87.66
11347;BME280;5728;42.722;23.258;2023-04-15T03:52:02;94107.47;;;6.80;86.27
11347;BME280;5728;42.722;23.258;2023-04-15T03:54:28;94101.69;;;6.64;87.20
11347;BME280;5728;42.722;23.258;2023-04-15T03:56:55;94110.22;;;6.69;87.64
11347;BME280;5728;42.722;23.258;2023-04-15T03:59:22;94098.16;;;6.70;87.78
11347;BME280;5728;42.722;23.258;2023-04-15T04:01:50;94104.94;;;6.78;87.15
11347;BME280;5728;42.722;23.258;2023-04-15T04:04:17;94109.88;;;6.95;86.44
11347;BME280;5728;42.722;23.258;2023-04-15T04:06:43;94106.41;;;6.99;86.23
11347;BME280;5728;42.722;23.258;2023-04-15T04:09:10;94106.22;;;7.13;85.38
11347;BME280;5728;42.722;23.258;2023-04-15T04:11:37;94105.53;;;7.01;86.86
11347;BME280;5728;42.722;23.258;2023-04-15T04:14:03;94112.47;;;6.96;86.95
11347;BME280;5728;42.722;23.258;2023-04-15T04:16:30;94112.13;;;7.21;86.19
11347;BME280;5728;42.722;23.258;2023-04-15T04:18:58;94108.78;;;7.13;85.76
11347;BME280;5728;42.722;23.258;2023-04-15T04:21:25;94105.22;;;7.23;86.32
11347;BME280;5728;42.722;23.258;2023-04-15T04:23:52;94105.13;;;7.32;85.72
11347;BME280;5728;42.722;23.258;2023-04-15T04:26:19;94119.34;;;6.93;86.32
11347;BME280;5728;42.722;23.258;2023-04-15T04:28:47;94112.75;;;7.38;85.81
11347;BME280;5728;42.722;23.258;2023-04-15T04:31:13;94116.88;;;7.51;85.69
11347;BME280;5728;42.722;23.258;2023-04-15T04:33:40;94123.56;;;7.64;85.15
11347;BME280;5728;42.722;23.258;2023-04-15T04:36:08;94114.41;;;7.98;83.55
11347;BME280;5728;42.722;23.258;2023-04-15T04:38:35;94117.59;;;8.15;82.38
11347;BME280;5728;42.722;23.258;2023-04-15T04:41:02;94118.50;;;8.11;81.47
11347;BME280;5728;42.722;23.258;2023-04-15T04:43:28;94125.66;;;7.94;83.33
11347;BME280;5728;42.722;23.258;2023-04-15T04:45:55;94125.47;;;8.08;83.60
11347;BME280;5728;42.722;23.258;2023-04-15T04:48:22;94143.47;;;8.11;82.02
11347;BME280;5728;42.722;23.258;2023-04-15T04:50:49;94124.66;;;8.04;82.99
11347;BME280;5728;42.722;23.258;2023-04-15T04:53:17;94131.16;;;8.29;82.95
11347;BME280;5728;42.722;23.258;2023-04-15T04:55:44;94131.56;;;8.02;82.40
11347;BME280;5728;42.722;23.258;2023-04-15T04:58:11;94130.59;;;8.60;82.30
11347;BME280;5728;42.722;23.258;2023-04-15T05:00:39;94132.31;;;8.61;79.32
11347;BME280;5728;42.722;23.258;2023-04-15T05:03:06;94139.44;;;8.47;79.38
11347;BME280;5728;42.722;23.258;2023-04-15T05:05:33;94134.97;;;8.04;83.05
11347;BME280;5728;42.722;23.258;2023-04-15T05:08:01;94139.19;;;8.62;81.66
11347;BME280;5728;42.722;23.258;2023-04-15T05:10:29;94150.94;;;8.78;80.63
11347;BME280;5728;42.722;23.258;2023-04-15T05:12:56;94149.78;;;9.35;78.08
11347;BME280;5728;42.722;23.258;2023-04-15T05:15:23;94156.38;;;9.51;77.06
11347;BME280;5728;42.722;23.258;2023-04-15T05:17:50;94155.75;;;9.79;75.66
11347;BME280;5728;42.722;23.258;2023-04-15T05:20:17;94164.28;;;9.84;73.20
11347;BME280;5728;42.722;23.258;2023-04-15T05:22:44;94165.44;;;9.71;75.24
11347;BME280;5728;42.722;23.258;2023-04-15T05:25:10;94164.00;;;9.96;73.59
11347;BME280;5728;42.722;23.258;2023-04-15T05:27:39;94163.44;;;10.20;72.62
11347;BME280;5728;42.722;23.258;2023-04-15T05:30:07;94165.97;;;10.24;72.41
11347;BME280;5728;42.722;23.258;2023-04-15T05:32:34;94157.81;;;10.38;71.94
11347;BME280;5728;42.722;23.258;2023-04-15T05:35:01;94158.91;;;10.63;71.88
11347;BME280;5728;42.722;23.258;2023-04-15T05:37:27;94156.19;;;11.02;69.97
11347;BME280;5728;42.722;23.258;2023-04-15T05:39:54;94154.53;;;10.98;70.22
11347;BME280;5728;42.722;23.258;2023-04-15T05:42:21;94156.09;;;11.05;69.66
11347;BME280;5728;42.722;23.258;2023-04-15T05:44:49;94159.50;;;11.37;70.52
11347;BME280;5728;42.722;23.258;2023-04-15T05:47:16;94154.28;;;11.68;69.50
11347;BME280;5728;42.722;23.258;2023-04-15T05:49:42;94162.25;;;11.91;65.11
11347;BME280;5728;42.722;23.258;2023-04-15T05:52:09;94177.34;;;12.08;65.68
11347;BME280;5728;42.722;23.258;2023-04-15T05:54:36;94161.31;;;12.22;64.99
11347;BME280;5728;42.722;23.258;2023-04-15T05:57:03;94177.06;;;12.71;63.38
11347;BME280;5728;42.722;23.258;2023-04-15T05:59:30;94170.53;;;13.10;62.45
11347;BME280;5728;42.722;23.258;2023-04-15T06:01:58;94176.13;;;12.98;60.95
11347;BME280;5728;42.722;23.258;2023-04-15T06:04:25;94169.63;;;12.85;61.70
11347;BME280;5728;42.722;23.258;2023-04-15T06:06:51;94164.56;;;13.07;61.54
11347;BME280;5728;42.722;23.258;2023-04-15T06:09:18;94169.97;;;12.76;61.35
11347;BME280;5728;42.722;23.258;2023-04-15T06:11:45;94176.47;;;13.38;60.24
11347;BME280;5728;42.722;23.258;2023-04-15T06:14:12;94177.25;;;13.40;60.14
11347;BME280;5728;42.722;23.258;2023-04-15T06:16:38;94182.63;;;13.84;60.07
11347;BME280;5728;42.722;23.258;2023-04-15T06:19:06;94183.50;;;14.06;58.17
11347;BME280;5728;42.722;23.258;2023-04-15T06:21:33;94194.31;;;14.19;56.14
11347;BME280;5728;42.722;23.258;2023-04-15T06:24:00;94194.50;;;14.14;56.80
11347;BME280;5728;42.722;23.258;2023-04-15T06:26:27;94197.41;;;14.06;57.96
11347;BME280;5728;42.722;23.258;2023-04-15T06:28:54;94201.06;;;13.78;59.53
11347;BME280;5728;42.722;23.258;2023-04-15T06:31:20;94201.38;;;14.15;58.54
11347;BME280;5728;42.722;23.258;2023-04-15T06:33:47;94203.59;;;14.26;58.33
11347;BME280;5728;42.722;23.258;2023-04-15T06:36:15;94208.06;;;14.45;58.81
11347;BME280;5728;42.722;23.258;2023-04-15T06:38:42;94201.16;;;14.88;57.53
11347;BME280;5728;42.722;23.258;2023-04-15T06:41:09;94206.72;;;14.35;58.31
11347;BME280;5728;42.722;23.258;2023-04-15T06:43:36;94210.34;;;14.08;59.25
11347;BME280;5728;42.722;23.258;2023-04-15T06:46:03;94213.84;;;14.30;59.55
11347;BME280;5728;42.722;23.258;2023-04-15T06:48:30;94225.78;;;14.37;59.52
11347;BME280;5728;42.722;23.258;2023-04-15T06:50:56;94211.44;;;14.91;57.56
11347;BME280;5728;42.722;23.258;2023-04-15T06:53:25;94222.69;;;14.71;57.65
11347;BME280;5728;42.722;23.258;2023-04-15T06:55:52;94211.97;;;15.20;58.65
11347;BME280;5728;42.722;23.258;2023-04-15T06:58:20;94204.47;;;14.91;56.97
11347;BME280;5728;42.722;23.258;2023-04-15T07:00:47;94215.28;;;14.60;58.10
11347;BME280;5728;42.722;23.258;2023-04-15T07:03:14;94213.75;;;14.98;56.77
11347;BME280;5728;42.722;23.258;2023-04-15T07:05:41;94205.88;;;14.78;56.59
11347;BME280;5728;42.722;23.258;2023-04-15T07:08:08;94217.59;;;14.46;58.04
11347;BME280;5728;42.722;23.258;2023-04-15T07:10:36;94201.94;;;14.90;55.98
11347;BME280;5728;42.722;23.258;2023-04-15T07:13:03;94206.13;;;14.50;57.53
11347;BME280;5728;42.722;23.258;2023-04-15T07:15:29;94206.44;;;14.64;56.75
11347;BME280;5728;42.722;23.258;2023-04-15T07:17:57;94209.91;;;15.07;55.83
11347;BME280;5728;42.722;23.258;2023-04-15T07:20:23;94213.63;;;15.21;54.74
11347;BME280;5728;42.722;23.258;2023-04-15T07:22:50;94208.50;;;15.40;54.85
11347;BME280;5728;42.722;23.258;2023-04-15T07:25:17;94205.75;;;15.63;53.80
11347;BME280;5728;42.722;23.258;2023-04-15T07:27:46;94204.44;;;15.73;52.87
11347;BME280;5728;42.722;23.258;2023-04-15T07:30:13;94200.84;;;15.56;53.70
11347;BME280;5728;42.722;23.258;2023-04-15T07:32:41;94214.25;;;15.28;53.13
11347;BME280;5728;42.722;23.258;2023-04-15T07:35:08;94207.00;;;15.55;51.44
11347;BME280;5728;42.722;23.258;2023-04-15T07:37:35;94219.31;;;14.69;53.03
11347;BME280;5728;42.722;23.258;2023-04-15T07:40:03;94205.28;;;14.72;53.47
11347;BME280;5728;42.722;23.258;2023-04-15T07:42:31;94214.53;;;15.62;54.74
11347;BME280;5728;42.722;23.258;2023-04-15T07:45:00;94198.84;;;15.81;52.28
11347;BME280;5728;42.722;23.258;2023-04-15T07:47:28;94214.63;;;16.18;51.16
11347;BME280;5728;42.722;23.258;2023-04-15T07:49:55;94208.25;;;16.61;49.29
11347;BME280;5728;42.722;23.258;2023-04-15T07:52:21;94221.09;;;16.47;48.22
11347;BME280;5728;42.722;23.258;2023-04-15T07:54:48;94214.53;;;17.46;49.66
11347;BME280;5728;42.722;23.258;2023-04-15T07:57:15;94216.31;;;17.62;46.82
11347;BME280;5728;42.722;23.258;2023-04-15T07:59:42;94236.50;;;16.90;45.68
11347;BME280;5728;42.722;23.258;2023-04-15T08:02:11;94232.72;;;17.32;45.51
11347;BME280;5728;42.722;23.258;2023-04-15T08:04:38;94233.06;;;16.34;41.69
11347;BME280;5728;42.722;23.258;2023-04-15T08:07:04;94241.13;;;15.10;41.99
11347;BME280;5728;42.722;23.258;2023-04-15T08:09:31;94240.91;;;14.73;43.00
11347;BME280;5728;42.722;23.258;2023-04-15T08:11:58;94246.78;;;14.99;43.76
11347;BME280;5728;42.722;23.258;2023-04-15T08:14:25;94243.50;;;15.36;43.68
11347;BME280;5728;42.722;23.258;2023-04-15T08:16:52;94249.28;;;14.81;45.50
11347;BME280;5728;42.722;23.258;2023-04-15T08:19:20;94235.53;;;15.39;44.90
11347;BME280;5728;42.722;23.258;2023-04-15T08:21:47;94238.25;;;15.96;43.55
11347;BME280;5728;42.722;23.258;2023-04-15T08:24:14;94233.44;;;15.27;43.94
11347;BME280;5728;42.722;23.258;2023-04-15T08:26:41;94241.38;;;15.04;43.34
11347;BME280;5728;42.722;23.258;2023-04-15T08:29:07;94242.09;;;15.49;42.34
11347;BME280;5728;42.722;23.258;2023-04-15T08:31:35;94240.84;;;15.16;42.57
11347;BME280;5728;42.722;23.258;2023-04-15T08:34:02;94231.22;;;15.18;42.03
11347;BME280;5728;42.722;23.258;2023-04-15T08:36:31;94233.56;;;15.24;42.64
11347;BME280;5728;42.722;23.258;2023-04-15T08:38:58;94237.38;;;15.77;42.93
11347;BME280;5728;42.722;23.258;2023-04-15T08:41:25;94228.78;;;15.55;42.10
11347;BME280;5728;42.722;23.258;2023-04-15T08:43:55;94224.03;;;15.83;42.60
11347;BME280;5728;42.722;23.258;2023-04-15T08:46:22;94226.13;;;15.35;41.06
11347;BME280;5728;42.722;23.258;2023-04-15T08:48:49;94222.34;;;14.80;41.50
11347;BME280;5728;42.722;23.258;2023-04-15T08:51:17;94215.91;;;14.67;41.30
11347;BME280;5728;42.722;23.258;2023-04-15T08:53:45;94215.34;;;15.22;43.02
11347;BME280;5728;42.722;23.258;2023-04-15T08:56:13;94198.72;;;15.65;42.75
11347;BME280;5728;42.722;23.258;2023-04-15T08:58:41;94210.34;;;15.97;41.52
11347;BME280;5728;42.722;23.258;2023-04-15T09:01:09;94219.97;;;15.76;40.83
11347;BME280;5728;42.722;23.258;2023-04-15T09:03:37;94212.69;;;15.64;41.23
11347;BME280;5728;42.722;23.258;2023-04-15T09:06:05;94209.22;;;16.03;39.83
11347;BME280;5728;42.722;23.258;2023-04-15T09:08:32;94215.06;;;15.28;41.21
11347;BME280;5728;42.722;23.258;2023-04-15T09:11:02;94196.75;;;15.30;40.82
11347;BME280;5728;42.722;23.258;2023-04-15T09:13:29;94208.38;;;15.43;40.33
11347;BME280;5728;42.722;23.258;2023-04-15T09:15:56;94201.81;;;15.73;40.51
11347;BME280;5728;42.722;23.258;2023-04-15T09:18:27;94203.69;;;15.90;39.85
11347;BME280;5728;42.722;23.258;2023-04-15T09:20:55;94192.44;;;15.49;37.98
11347;BME280;5728;42.722;23.258;2023-04-15T09:23:21;94186.44;;;15.47;39.04
11347;BME280;5728;42.722;23.258;2023-04-15T09:25:48;94180.13;;;15.31;38.98
11347;BME280;5728;42.722;23.258;2023-04-15T09:28:23;94192.94;;;15.37;39.15
11347;BME280;5728;42.722;23.258;2023-04-15T09:30:51;94190.59;;;15.11;39.54
11347;BME280;5728;42.722;23.258;2023-04-15T09:33:17;94196.34;;;15.39;36.52
11347;BME280;5728;42.722;23.258;2023-04-15T09:35:56;94188.00;;;15.51;37.22
11347;BME280;5728;42.722;23.258;2023-04-15T09:38:23;94189.50;;;15.57;38.07
11347;BME280;5728;42.722;23.258;2023-04-15T09:40:50;94180.59;;;16.00;37.11
11347;BME280;5728;42.722;23.258;2023-04-15T09:43:18;94188.28;;;16.40;36.36
11347;BME280;5728;42.722;23.258;2023-04-15T09:45:49;94188.41;;;16.74;36.03
11347;BME280;5728;42.722;23.258;2023-04-15T09:48:18;94197.22;;;16.36;36.60
11347;BME280;5728;42.722;23.258;2023-04-15T09:50:46;94201.44;;;16.20;37.02
11347;BME280;5728;42.722;23.258;2023-04-15T09:53:17;94197.06;;;15.83;34.61
11347;BME280;5728;42.722;23.258;2023-04-15T09:55:46;94205.28;;;16.13;34.91
11347;BME280;5728;42.722;23.258;2023-04-15T09:58:20;94196.47;;;15.36;36.67
11347;BME280;5728;42.722;23.258;2023-04-15T10:00:48;94186.91;;;15.95;36.43
11347;BME280;5728;42.722;23.258;2023-04-15T10:03:19;94204.31;;;15.56;34.57
11347;BME280;5728;42.722;23.258;2023-04-15T10:05:47;94199.72;;;15.81;35.92
11347;BME280;5728;42.722;23.258;2023-04-15T10:08:16;94202.84;;;15.89;36.33
11347;BME280;5728;42.722;23.258;2023-04-15T10:10:44;94188.84;;;16.46;34.22
11347;BME280;5728;42.722;23.258;2023-04-15T10:13:12;94196.16;;;16.40;34.38
11347;BME280;5728;42.722;23.258;2023-04-15T10:15:43;94196.22;;;16.38;32.02
11347;BME280;5728;42.722;23.258;2023-04-15T10:18:10;94180.84;;;15.93;35.77
11347;BME280;5728;42.722;23.258;2023-04-15T10:20:41;94185.78;;;15.81;36.71
11347;BME280;5728;42.722;23.258;2023-04-15T10:23:08;94193.38;;;16.24;35.31
11347;BME280;5728;42.722;23.258;2023-04-15T10:25:35;94176.22;;;16.00;36.20
11347;BME280;5728;42.722;23.258;2023-04-15T10:28:03;94179.09;;;15.75;36.85
11347;BME280;5728;42.722;23.258;2023-04-15T10:30:32;94177.13;;;15.80;34.97
11347;BME280;5728;42.722;23.258;2023-04-15T10:33:02;94176.50;;;16.13;34.47
11347;BME280;5728;42.722;23.258;2023-04-15T10:35:31;94165.38;;;16.45;33.92
11347;BME280;5728;42.722;23.258;2023-04-15T10:37:58;94167.50;;;17.43;33.57
11347;BME280;5728;42.722;23.258;2023-04-15T10:40:27;94174.22;;;16.24;34.91
11347;BME280;5728;42.722;23.258;2023-04-15T10:42:56;94155.63;;;16.30;35.36
11347;BME280;5728;42.722;23.258;2023-04-15T10:45:25;94158.72;;;17.09;33.42
11347;BME280;5728;42.722;23.258;2023-04-15T10:47:54;94157.78;;;17.45;33.20
11347;BME280;5728;42.722;23.258;2023-04-15T10:50:25;94151.78;;;18.08;33.29
11347;BME280;5728;42.722;23.258;2023-04-15T10:52:53;94175.00;;;18.31;32.66
11347;BME280;5728;42.722;23.258;2023-04-15T10:55:22;94163.34;;;17.21;34.71
11347;BME280;5728;42.722;23.258;2023-04-15T10:57:51;94162.72;;;17.34;34.12
11347;BME280;5728;42.722;23.258;2023-04-15T11:00:20;94157.81;;;17.62;33.82
11347;BME280;5728;42.722;23.258;2023-04-15T11:02:52;94159.94;;;17.02;34.89
11347;BME280;5728;42.722;23.258;2023-04-15T11:05:22;94152.41;;;16.96;35.44
11347;BME280;5728;42.722;23.258;2023-04-15T11:07:51;94146.22;;;17.66;34.41
11347;BME280;5728;42.722;23.258;2023-04-15T11:10:52;94152.25;;;17.34;35.86
11347;BME280;5728;42.722;23.258;2023-04-15T11:13:27;94161.25;;;17.45;34.01
11347;BME280;5728;42.722;23.258;2023-04-15T11:16:00;94149.78;;;17.31;34.62
11347;BME280;5728;42.722;23.258;2023-04-15T11:18:32;94143.28;;;17.38;35.41
11347;BME280;5728;42.722;23.258;2023-04-15T11:21:03;94141.41;;;17.74;35.84
11347;BME280;5728;42.722;23.258;2023-04-15T11:23:32;94151.00;;;17.41;36.06
11347;BME280;5728;42.722;23.258;2023-04-15T11:26:00;94138.41;;;18.13;33.92
11347;BME280;5728;42.722;23.258;2023-04-15T11:28:29;94139.84;;;17.54;33.17
11347;BME280;5728;42.722;23.258;2023-04-15T11:30:56;94142.22;;;17.42;33.17
11347;BME280;5728;42.722;23.258;2023-04-15T11:33:23;94144.25;;;17.37;33.11
11347;BME280;5728;42.722;23.258;2023-04-15T11:35:52;94144.84;;;17.07;32.76
11347;BME280;5728;42.722;23.258;2023-04-15T11:38:20;94132.34;;;17.30;34.54
11347;BME280;5728;42.722;23.258;2023-04-15T11:40:49;94138.13;;;17.02;35.79
11347;BME280;5728;42.722;23.258;2023-04-15T11:43:18;94139.00;;;17.54;33.69
11347;BME280;5728;42.722;23.258;2023-04-15T11:45:52;94128.34;;;17.22;32.39
11347;BME280;5728;42.722;23.258;2023-04-15T11:48:22;94129.06;;;17.09;34.01
11347;BME280;5728;42.722;23.258;2023-04-15T11:50:53;94119.53;;;17.58;33.88
11347;BME280;5728;42.722;23.258;2023-04-15T11:53:22;94116.34;;;18.32;31.82
11347;BME280;5728;42.722;23.258;2023-04-15T11:55:50;94125.03;;;18.33;32.62
11347;BME280;5728;42.722;23.258;2023-04-15T11:58:19;94128.09;;;18.25;31.72
11347;BME280;5728;42.722;23.258;2023-04-15T12:00:47;94127.38;;;17.75;32.29
11347;BME280;5728;42.722;23.258;2023-04-15T12:03:20;94131.28;;;17.83;32.49
11347;BME280;5728;42.722;23.258;2023-04-15T12:06:10;94127.56;;;17.72;31.63
11347;BME280;5728;42.722;23.258;2023-04-15T12:09:00;94137.16;;;17.21;33.41
11347;BME280;5728;42.722;23.258;2023-04-15T12:11:29;94131.28;;;17.34;33.53
11347;BME280;5728;42.722;23.258;2023-04-15T12:13:58;94141.88;;;17.65;32.38
11347;BME280;5728;42.722;23.258;2023-04-15T12:16:26;94130.03;;;17.58;31.42
11347;BME280;5728;42.722;23.258;2023-04-15T12:18:55;94133.25;;;17.63;29.49
11347;BME280;5728;42.722;23.258;2023-04-15T12:21:24;94132.84;;;17.20;29.83
11347;BME280;5728;42.722;23.258;2023-04-15T12:23:51;94131.59;;;17.62;29.73
11347;BME280;5728;42.722;23.258;2023-04-15T12:26:27;94133.50;;;17.41;29.72
11347;BME280;5728;42.722;23.258;2023-04-15T12:28:54;94143.69;;;17.13;31.31
11347;BME280;5728;42.722;23.258;2023-04-15T12:31:21;94130.50;;;17.49;32.55
11347;BME280;5728;42.722;23.258;2023-04-15T12:33:48;94139.56;;;17.76;32.25
11347;BME280;5728;42.722;23.258;2023-04-15T12:36:15;94130.66;;;17.46;34.01
11347;BME280;5728;42.722;23.258;2023-04-15T12:38:42;94143.00;;;18.09;32.75
11347;BME280;5728;42.722;23.258;2023-04-15T12:41:09;94152.66;;;18.09;30.30
11347;BME280;5728;42.722;23.258;2023-04-15T12:43:37;94153.28;;;17.14;31.47
11347;BME280;5728;42.722;23.258;2023-04-15T12:46:04;94143.63;;;17.32;31.85
11347;BME280;5728;42.722;23.258;2023-04-15T12:48:31;94144.19;;;17.71;31.88
11347;BME280;5728;42.722;23.258;2023-04-15T12:50:58;94154.72;;;17.54;31.43
11347;BME280;5728;42.722;23.258;2023-04-15T12:53:26;94144.44;;;17.66;30.88
11347;BME280;5728;42.722;23.258;2023-04-15T12:55:53;94152.22;;;17.68;29.97
11347;BME280;5728;42.722;23.258;2023-04-15T12:58:20;94141.56;;;18.19;29.06
11347;BME280;5728;42.722;23.258;2023-04-15T13:00:48;94150.97;;;18.23;29.59
11347;BME280;5728;42.722;23.258;2023-04-15T13:03:15;94143.25;;;18.20;29.71
11347;BME280;5728;42.722;23.258;2023-04-15T13:05:42;94136.09;;;19.30;29.17
11347;BME280;5728;42.722;23.258;2023-04-15T13:08:09;94135.69;;;19.38;28.85